Time;durP1;ratioP1;P1;durP2;ratioP2;P2;SDS_P1;SDS_P2;PMS_P1;PMS_P2;Temp;Humidity;BMP_temperature;BMP_pressure;BME280_temperature;BME280_humidity;BME280_pressure;Samples;Min_cycle;Max_cycle;Signal;HPM_P1;HPM_P2
2022/12/22 03:26:26;;;;;;;6.03;3.22;;;9.60;99.90;;;;;;5016461;28;20409;-69
2022/12/22 03:28:52;;;;;;;5.18;3.00;;;9.60;99.90;;;;;;5016508;28;20123;-74
2022/12/22 03:31:18;;;;;;;6.25;4.05;;;9.60;99.90;;;;;;5016370;28;20493;-68
2022/12/22 03:33:43;;;;;;;6.75;4.07;;;9.70;99.90;;;;;;5016318;28;20038;-75
2022/12/22 03:36:10;;;;;;;6.10;3.78;;;9.60;99.90;;;;;;5016376;28;20072;-66
2022/12/22 03:38:35;;;;;;;6.85;3.85;;;9.60;99.90;;;;;;5016259;28;20053;-69
2022/12/22 03:41:01;;;;;;;6.30;3.60;;;9.60;99.90;;;;;;5016262;28;20042;-74
2022/12/22 03:46:30;;;;;;;7.82;4.75;;;9.60;99.90;;;;;;5016265;28;20076;-71
2022/12/22 03:49:09;;;;;;;11.73;5.57;;;9.60;99.90;;;;;;5016123;28;20524;-69
2022/12/22 03:51:46;;;;;;;8.55;5.13;;;9.60;99.90;;;;;;5011977;28;20082;-69
2022/12/22 03:54:17;;;;;;;11.43;4.38;;;9.70;99.90;;;;;;4996038;28;20065;-75
2022/12/22 03:56:43;;;;;;;7.90;4.10;;;9.60;99.90;;;;;;4996434;28;20038;-67
2022/12/22 03:59:09;;;;;;;7.22;2.83;;;9.60;99.90;;;;;;4994851;28;20093;-73
2022/12/22 04:01:46;;;;;;;6.38;3.60;;;9.80;99.90;;;;;;4996154;28;20428;-73
2022/12/22 04:04:13;;;;;;;5.18;3.42;;;9.70;99.90;;;;;;4996147;28;20042;-75
2022/12/22 04:06:39;;;;;;;6.93;3.38;;;9.50;99.90;;;;;;5011453;28;20041;-75
2022/12/22 04:09:06;;;;;;;7.15;2.55;;;9.50;99.90;;;;;;5015523;28;20041;-74
2022/12/22 04:14:16;;;;;;;12.30;5.05;;;9.70;99.90;;;;;;5015612;28;20040;-73
2022/12/22 04:16:41;;;;;;;7.68;3.97;;;9.80;99.90;;;;;;5015062;28;20124;-71
2022/12/22 04:19:08;;;;;;;7.60;4.00;;;9.80;99.90;;;;;;5015263;28;20045;-74
2022/12/22 04:21:35;;;;;;;7.35;3.00;;;9.90;99.90;;;;;;5015422;28;20045;-75
2022/12/22 04:24:01;;;;;;;12.98;5.88;;;9.90;99.90;;;;;;5015435;28;20124;-74
2022/12/22 04:26:27;;;;;;;5.45;2.50;;;9.90;99.90;;;;;;5015429;28;20068;-75
2022/12/22 04:28:53;;;;;;;5.63;2.35;;;9.80;99.90;;;;;;5015466;28;20037;-74
2022/12/22 04:31:20;;;;;;;4.90;2.03;;;9.90;99.90;;;;;;5015371;28;20054;-74
2022/12/22 04:33:46;;;;;;;6.63;2.47;;;10.00;99.90;;;;;;5015301;28;20094;-71
2022/12/22 04:36:12;;;;;;;26.25;10.23;;;10.00;99.90;;;;;;5015314;28;20044;-74
2022/12/22 04:38:38;;;;;;;15.23;6.32;;;10.10;99.90;;;;;;5015183;28;20129;-74
2022/12/22 04:41:04;;;;;;;10.95;4.63;;;10.10;99.90;;;;;;5015345;28;20034;-75
2022/12/22 04:43:30;;;;;;;9.48;4.22;;;10.10;99.90;;;;;;5015197;28;20038;-74
2022/12/22 04:45:56;;;;;;;13.07;4.53;;;10.10;99.90;;;;;;5015107;28;20121;-72
2022/12/22 04:48:23;;;;;;;6.63;2.17;;;10.20;99.90;;;;;;4997425;28;20068;-69
2022/12/22 04:50:50;;;;;;;7.07;3.60;;;10.20;99.90;;;;;;5015076;28;20042;-66
2022/12/22 04:53:17;;;;;;;7.28;2.00;;;10.30;99.90;;;;;;5014719;28;20085;-75
2022/12/22 04:56:03;;;;;;;5.28;1.90;;;10.30;99.90;;;;;;5014814;28;20140;-73
2022/12/22 04:58:29;;;;;;;9.90;2.47;;;10.30;99.90;;;;;;5014881;28;20077;-75
2022/12/22 05:00:55;;;;;;;5.53;2.00;;;10.30;99.90;;;;;;5014796;28;20038;-66
2022/12/22 05:03:21;;;;;;;12.15;5.18;;;10.30;99.90;;;;;;5014922;28;20125;-74
2022/12/22 05:05:47;;;;;;;4.53;1.90;;;10.30;99.90;;;;;;5013789;28;20125;-68
2022/12/22 05:08:13;;;;;;;12.30;3.10;;;10.30;99.90;;;;;;5014501;28;20548;-69
2022/12/22 05:10:39;;;;;;;8.60;4.00;;;10.30;99.90;;;;;;5014794;28;20049;-66
2022/12/22 05:13:06;;;;;;;7.60;2.25;;;10.50;99.90;;;;;;5014303;28;20049;-71
2022/12/22 05:15:34;;;;;;;11.20;3.72;;;10.50;99.90;;;;;;5014508;28;20064;-74
2022/12/22 05:18:01;;;;;;;5.88;2.70;;;10.50;99.90;;;;;;5014410;28;20491;-72
2022/12/22 05:20:28;;;;;;;9.38;2.85;;;10.50;99.90;;;;;;5014304;28;20519;-74
2022/12/22 05:22:54;;;;;;;9.00;2.80;;;10.50;99.90;;;;;;5014451;28;20029;-74
2022/12/22 05:25:20;;;;;;;7.78;3.80;;;10.50;99.90;;;;;;5014342;28;20041;-70
2022/12/22 05:27:47;;;;;;;8.43;3.40;;;10.50;99.90;;;;;;5010803;28;20037;-69
2022/12/22 05:30:15;;;;;;;12.50;5.22;;;10.60;99.90;;;;;;5011239;28;20113;-74
2022/12/22 05:32:40;;;;;;;7.57;1.77;;;10.70;99.90;;;;;;5013190;28;20045;-66
2022/12/22 05:35:07;;;;;;;4.40;2.08;;;10.60;99.90;;;;;;5013559;28;20045;-73
2022/12/22 05:37:33;;;;;;;8.50;3.30;;;10.60;99.90;;;;;;5013804;28;20046;-73
2022/12/22 05:39:59;;;;;;;9.65;3.47;;;10.60;99.90;;;;;;5008503;28;20039;-71
2022/12/22 05:42:37;;;;;;;12.93;4.13;;;10.70;99.90;;;;;;4994614;28;20085;-67
2022/12/22 05:45:08;;;;;;;6.82;3.08;;;10.70;99.90;;;;;;4996636;28;20095;-69
2022/12/22 05:47:34;;;;;;;15.30;4.80;;;10.70;99.90;;;;;;5012457;28;20144;-70
2022/12/22 05:50:00;;;;;;;7.45;3.33;;;10.70;99.90;;;;;;5013260;28;20092;-73
2022/12/22 05:52:26;;;;;;;11.25;3.35;;;10.60;99.90;;;;;;5012831;28;20046;-71
2022/12/22 05:54:52;;;;;;;8.68;3.17;;;10.50;99.90;;;;;;5013240;28;20048;-75
2022/12/22 05:57:18;;;;;;;8.90;3.00;;;10.40;99.90;;;;;;5013165;28;20122;-67
2022/12/22 05:59:44;;;;;;;5.35;2.05;;;10.30;99.90;;;;;;5013483;28;20046;-70
2022/12/22 06:02:10;;;;;;;8.65;3.08;;;10.30;99.90;;;;;;5013621;28;20045;-67
2022/12/22 06:04:35;;;;;;;14.25;3.65;;;10.40;99.90;;;;;;5013730;28;20072;-73
2022/12/22 06:07:01;;;;;;;6.10;2.38;;;10.50;99.90;;;;;;5013974;28;20045;-73
2022/12/22 06:09:27;;;;;;;9.82;1.98;;;10.40;99.90;;;;;;5014045;28;20049;-73
2022/12/22 06:11:52;;;;;;;11.98;3.33;;;10.40;99.90;;;;;;5013942;28;20492;-67
2022/12/22 06:14:18;;;;;;;10.90;3.38;;;10.50;99.90;;;;;;5014088;28;20050;-74
2022/12/22 06:16:45;;;;;;;9.75;2.45;;;10.60;99.90;;;;;;5013707;28;20054;-70
2022/12/22 06:19:10;;;;;;;11.70;3.67;;;10.60;99.90;;;;;;5013808;28;20113;-73
2022/12/22 06:21:36;;;;;;;19.70;7.13;;;10.70;99.90;;;;;;5013788;28;20137;-66
2022/12/22 06:24:03;;;;;;;12.13;3.58;;;10.80;99.90;;;;;;5013750;28;20508;-67
2022/12/22 06:26:29;;;;;;;16.80;5.03;;;10.70;99.90;;;;;;5013975;28;20037;-74
2022/12/22 06:28:54;;;;;;;13.60;4.75;;;10.70;99.90;;;;;;5013847;28;20030;-66
2022/12/22 06:31:20;;;;;;;20.40;9.00;;;10.70;99.90;;;;;;5013482;28;20496;-74
2022/12/22 06:33:46;;;;;;;23.23;10.45;;;10.70;99.90;;;;;;5013655;28;20030;-74
2022/12/22 06:36:12;;;;;;;8.57;3.60;;;10.70;99.90;;;;;;5013518;28;20076;-71
2022/12/22 06:38:38;;;;;;;12.05;3.20;;;10.70;99.90;;;;;;5013222;28;20065;-74
2022/12/22 06:41:03;;;;;;;18.52;7.47;;;10.70;99.90;;;;;;5016546;28;20045;-74
2022/12/22 06:43:29;;;;;;;23.73;11.85;;;10.70;99.90;;;;;;5017242;28;20520;-66
2022/12/22 06:45:55;;;;;;;17.88;8.60;;;10.70;99.90;;;;;;5017438;28;20072;-74
2022/12/22 06:48:21;;;;;;;10.55;2.53;;;10.80;99.90;;;;;;5017268;28;20045;-67
2022/12/22 06:50:47;;;;;;;14.93;2.95;;;10.80;99.90;;;;;;5017176;28;20048;-74
2022/12/22 06:53:13;;;;;;;7.28;2.00;;;10.90;99.90;;;;;;5016953;28;20493;-66
2022/12/22 06:55:39;;;;;;;15.57;5.32;;;11.00;99.90;;;;;;5016948;28;20038;-74
2022/12/22 06:58:05;;;;;;;14.50;4.22;;;11.00;99.90;;;;;;5016922;28;20551;-66
2022/12/22 07:00:30;;;;;;;16.80;6.22;;;10.90;99.90;;;;;;5017236;28;20378;-66
2022/12/22 07:02:56;;;;;;;12.35;2.92;;;10.90;99.90;;;;;;5017061;28;20136;-74
2022/12/22 07:05:23;;;;;;;15.30;3.65;;;10.90;99.90;;;;;;5016930;28;20520;-71
2022/12/22 07:07:49;;;;;;;13.13;3.20;;;10.90;99.90;;;;;;5016818;28;20108;-69
2022/12/22 07:10:15;;;;;;;11.98;2.70;;;10.90;99.90;;;;;;5016748;28;20030;-73
2022/12/22 07:12:41;;;;;;;14.55;2.55;;;10.90;99.90;;;;;;5016694;28;20046;-74
2022/12/22 07:15:08;;;;;;;10.25;1.85;;;11.00;99.90;;;;;;5016679;28;20386;-72
2022/12/22 07:17:34;;;;;;;13.65;2.65;;;11.00;99.90;;;;;;5016779;28;20042;-73
2022/12/22 07:20:00;;;;;;;11.73;2.60;;;11.00;99.90;;;;;;5016662;28;20033;-74
2022/12/22 07:22:26;;;;;;;13.45;3.42;;;11.10;99.90;;;;;;5016731;28;20052;-74
2022/12/22 07:24:53;;;;;;;10.75;2.58;;;11.20;99.90;;;;;;5016572;28;20037;-73
2022/12/22 07:27:19;;;;;;;9.13;2.40;;;11.10;99.90;;;;;;5016482;28;20088;-73
2022/12/22 07:29:45;;;;;;;13.85;2.78;;;11.00;99.90;;;;;;5016576;28;20046;-68
2022/12/22 07:32:10;;;;;;;8.55;2.42;;;11.20;99.90;;;;;;5016417;28;20057;-72
2022/12/22 07:34:36;;;;;;;12.70;3.35;;;11.00;99.90;;;;;;5016408;28;20038;-73
2022/12/22 07:37:02;;;;;;;10.30;3.47;;;10.90;99.90;;;;;;5016317;28;20073;-72
2022/12/22 07:39:28;;;;;;;10.32;2.85;;;10.80;99.90;;;;;;5016144;28;20022;-73
2022/12/22 07:44:38;;;;;;;7.60;2.92;;;10.70;99.90;;;;;;5015331;28;20061;-71
2022/12/22 07:47:03;;;;;;;8.20;2.40;;;10.80;99.90;;;;;;5016004;28;20045;-74
2022/12/22 07:52:13;;;;;;;15.52;2.60;;;10.80;99.90;;;;;;4993343;28;20056;-74
2022/12/22 07:54:39;;;;;;;12.00;2.55;;;10.80;99.90;;;;;;4994916;28;20397;-75
2022/12/22 07:57:05;;;;;;;13.10;2.05;;;10.90;99.90;;;;;;4996415;28;20458;-70
2022/12/22 07:59:31;;;;;;;8.57;2.15;;;11.00;99.90;;;;;;5007963;28;20034;-67
2022/12/22 08:01:56;;;;;;;12.32;2.80;;;11.00;99.90;;;;;;5015757;28;20046;-73
2022/12/22 08:04:22;;;;;;;12.68;2.60;;;11.00;99.90;;;;;;4998256;28;20041;-72
2022/12/22 08:06:48;;;;;;;10.20;2.20;;;10.80;99.90;;;;;;5015929;28;20076;-72
2022/12/22 08:09:20;;;;;;;11.50;2.72;;;10.80;99.90;;;;;;5015498;28;20107;-75
2022/12/22 08:11:47;;;;;;;11.52;2.83;;;11.00;99.90;;;;;;5015742;28;20041;-66
2022/12/22 08:14:13;;;;;;;9.75;1.92;;;11.00;99.90;;;;;;5015729;28;20085;-67
2022/12/22 08:16:39;;;;;;;13.48;3.05;;;10.90;99.90;;;;;;5015625;28;20069;-66
2022/12/22 08:19:04;;;;;;;12.15;1.98;;;10.90;99.90;;;;;;5015414;28;20073;-66
2022/12/22 08:21:30;;;;;;;8.27;2.10;;;10.80;99.90;;;;;;5015458;28;20045;-75
2022/12/22 08:23:56;;;;;;;10.95;2.20;;;10.80;99.90;;;;;;5014655;28;20049;-73
2022/12/22 08:26:32;;;;;;;7.85;2.03;;;10.80;99.90;;;;;;5014353;28;20138;-67
2022/12/22 08:29:11;;;;;;;10.40;2.00;;;10.80;99.90;;;;;;5014931;28;20448;-68
2022/12/22 08:31:39;;;;;;;11.85;2.72;;;10.80;99.90;;;;;;5014405;28;20140;-70
2022/12/22 08:34:07;;;;;;;10.52;2.33;;;10.80;99.90;;;;;;5015258;28;20443;-75
2022/12/22 08:36:37;;;;;;;10.93;3.33;;;10.70;99.90;;;;;;5014762;28;20081;-67
2022/12/22 08:39:03;;;;;;;10.70;2.08;;;10.80;99.90;;;;;;5014945;28;20037;-70
2022/12/22 08:44:14;;;;;;;13.35;3.90;;;10.80;99.90;;;;;;5014850;28;20044;-74
2022/12/22 08:46:40;;;;;;;12.30;3.42;;;10.90;99.90;;;;;;5015123;28;20582;-67
2022/12/22 08:49:06;;;;;;;12.90;3.40;;;10.80;99.90;;;;;;5015013;28;20073;-74
2022/12/22 08:51:33;;;;;;;10.35;2.63;;;10.90;99.90;;;;;;5014902;28;20441;-75
2022/12/22 08:53:58;;;;;;;8.43;1.92;;;10.90;99.90;;;;;;5015143;28;20127;-71
2022/12/22 08:56:24;;;;;;;11.52;2.50;;;10.90;99.90;;;;;;5014996;28;20513;-67
2022/12/22 08:58:50;;;;;;;8.50;2.45;;;10.90;99.90;;;;;;5014469;28;20038;-75
2022/12/22 09:01:21;;;;;;;7.32;2.55;;;10.90;99.90;;;;;;5014795;28;20048;-75
2022/12/22 09:03:51;;;;;;;7.68;2.15;;;10.80;99.90;;;;;;5014886;28;20041;-75
2022/12/22 09:06:20;;;;;;;9.88;2.65;;;10.90;99.90;;;;;;5014712;28;20565;-74
2022/12/22 09:08:47;;;;;;;9.60;2.00;;;11.00;99.90;;;;;;5014571;28;20501;-75
2022/12/22 09:11:12;;;;;;;10.05;2.22;;;11.00;99.90;;;;;;5014738;28;20037;-76
2022/12/22 09:13:38;;;;;;;9.48;1.83;;;11.00;99.90;;;;;;5014711;28;20501;-71
2022/12/22 09:16:08;;;;;;;11.73;2.70;;;11.00;99.90;;;;;;5014465;28;20117;-74
2022/12/22 09:18:34;;;;;;;8.17;2.07;;;11.00;99.90;;;;;;5014454;28;20051;-73
2022/12/22 09:21:00;;;;;;;9.05;2.28;;;11.00;99.90;;;;;;5014804;28;20112;-70
2022/12/22 09:23:26;;;;;;;7.90;2.08;;;11.00;99.90;;;;;;5014659;28;20038;-72
2022/12/22 09:25:52;;;;;;;11.82;2.53;;;10.90;99.90;;;;;;5014325;28;20081;-74
2022/12/22 09:28:18;;;;;;;12.25;2.42;;;11.00;99.90;;;;;;5014182;28;20129;-67
2022/12/22 09:30:50;;;;;;;13.35;2.08;;;11.00;99.90;;;;;;5013694;28;20107;-68
2022/12/22 09:33:16;;;;;;;6.63;2.17;;;11.00;99.90;;;;;;5011512;28;20080;-68
2022/12/22 09:35:44;;;;;;;11.35;2.03;;;11.20;99.90;;;;;;5010610;28;20034;-72
2022/12/22 09:38:10;;;;;;;12.23;2.17;;;11.10;99.90;;;;;;5011792;28;20037;-71
2022/12/22 09:40:36;;;;;;;10.90;2.40;;;11.20;99.90;;;;;;5011421;28;20176;-68
2022/12/22 09:43:03;;;;;;;11.30;2.90;;;11.40;99.90;;;;;;5012137;28;20121;-74
2022/12/22 09:45:32;;;;;;;8.90;2.70;;;11.40;99.90;;;;;;5014244;28;20078;-72
2022/12/22 09:47:59;;;;;;;14.27;3.03;;;11.20;99.90;;;;;;5013336;28;20038;-74
2022/12/22 09:50:26;;;;;;;7.75;2.67;;;11.30;99.90;;;;;;5011273;28;20131;-68
2022/12/22 09:53:01;;;;;;;11.88;1.98;;;11.20;99.90;;;;;;5012436;28;20392;-74
2022/12/22 09:55:46;;;;;;;15.88;2.97;;;11.20;99.90;;;;;;5011801;28;20129;-75
2022/12/22 09:58:23;;;;;;;13.82;2.63;;;11.20;99.90;;;;;;5011759;28;20045;-67
2022/12/22 10:01:30;;;;;;;12.25;2.88;;;11.20;99.90;;;;;;4993633;28;20039;-69
2022/12/22 10:04:01;;;;;;;12.10;2.60;;;11.10;99.90;;;;;;4991937;28;20468;-66
2022/12/22 10:06:40;;;;;;;11.45;3.17;;;11.10;99.90;;;;;;4991583;28;20088;-66
2022/12/22 10:09:22;;;;;;;12.00;2.80;;;11.10;99.90;;;;;;4998206;28;20042;-66
2022/12/22 10:11:53;;;;;;;15.38;4.93;;;11.10;99.90;;;;;;5011763;28;20527;-66
2022/12/22 10:14:18;;;;;;;;;;;11.10;99.90;;;;;;5012195;28;20042;-66
2022/12/22 10:16:44;;;;;;;11.02;3.22;;;11.20;99.90;;;;;;5015106;28;19971;-66
2022/12/22 10:19:13;;;;;;;9.23;2.85;;;11.20;99.90;;;;;;5017388;28;20050;-66
2022/12/22 10:21:39;;;;;;;14.60;3.20;;;11.30;99.90;;;;;;5015939;28;20041;-66
2022/12/22 10:24:28;;;;;;;12.48;3.00;;;11.20;99.90;;;;;;5016216;28;20034;-66
2022/12/22 10:26:57;;;;;;;15.90;3.00;;;11.20;99.90;;;;;;5015322;28;20038;-66
2022/12/22 10:29:23;;;;;;;11.25;2.88;;;11.30;99.90;;;;;;5017278;28;20038;-66
2022/12/22 10:32:05;;;;;;;10.57;3.40;;;11.30;99.90;;;;;;5017465;28;20563;-66
2022/12/22 10:34:31;;;;;;;10.23;3.28;;;11.40;99.90;;;;;;5017248;28;20432;-67
2022/12/22 10:37:01;;;;;;;9.15;3.00;;;11.40;99.90;;;;;;5016664;28;20124;-66
2022/12/22 10:39:30;;;;;;;10.68;2.67;;;11.40;99.90;;;;;;5017055;28;20040;-66
2022/12/22 10:42:01;;;;;;;9.80;2.13;;;11.40;99.90;;;;;;5015013;28;20030;-66
2022/12/22 10:44:37;;;;;;;10.02;2.55;;;11.50;99.90;;;;;;5015007;28;20543;-72
2022/12/22 10:47:22;;;;;;;11.82;2.58;;;11.50;99.90;;;;;;5015705;28;20045;-66
2022/12/22 10:49:56;;;;;;;8.10;2.92;;;11.50;99.90;;;;;;5016696;28;20472;-66
2022/12/22 10:52:27;;;;;;;12.13;2.42;;;11.60;99.90;;;;;;5016311;28;20053;-67
2022/12/22 10:55:24;;;;;;;9.73;3.10;;;11.70;99.90;;;;;;5015230;28;20065;-66
2022/12/22 10:57:51;;;;;;;14.07;2.70;;;11.80;99.90;;;;;;5013724;28;20037;-70
2022/12/22 11:00:25;;;;;;;8.40;2.55;;;11.80;99.90;;;;;;5014779;28;20180;-66
2022/12/22 11:02:57;;;;;;;13.43;3.28;;;11.80;99.90;;;;;;5014952;28;20034;-66
2022/12/22 11:05:23;;;;;;;8.98;2.33;;;11.80;99.90;;;;;;5014406;28;20128;-66
2022/12/22 11:07:49;;;;;;;13.48;2.90;;;11.90;99.90;;;;;;5014865;28;20041;-66
2022/12/22 11:10:47;;;;;;;6.95;2.25;;;11.90;99.90;;;;;;5014402;28;20041;-66
2022/12/22 11:13:18;;;;;;;12.13;2.40;;;11.90;99.90;;;;;;4984078;28;20054;-66
2022/12/22 11:16:09;;;;;;;13.40;2.63;;;11.90;99.90;;;;;;5015070;28;20046;-66
2022/12/22 11:19:22;;;;;;;13.88;2.90;;;12.00;99.90;;;;;;5015251;28;20045;-66
2022/12/22 11:22:10;;;;;;;13.40;3.03;;;12.00;99.90;;;;;;4953831;28;20456;-66
2022/12/22 11:25:01;;;;;;;10.20;2.60;;;11.90;99.90;;;;;;5016446;28;20116;-66
2022/12/22 11:27:29;;;;;;;8.32;2.42;;;12.00;99.90;;;;;;5015656;28;20515;-66
2022/12/22 11:30:22;;;;;;;16.75;3.58;;;12.00;99.90;;;;;;5015475;28;20225;-66
2022/12/22 11:33:30;;;;;;;14.43;3.35;;;12.00;99.90;;;;;;5014470;28;20456;-66
2022/12/22 11:36:03;;;;;;;9.95;2.60;;;12.00;99.90;;;;;;5013781;28;20364;-67
2022/12/22 11:38:59;;;;;;;11.30;3.03;;;12.00;99.90;;;;;;5014961;28;20038;-66
2022/12/22 11:41:34;;;;;;;16.75;3.53;;;12.10;99.90;;;;;;4996680;28;20061;-66
2022/12/22 11:44:29;;;;;;;9.35;3.03;;;12.10;99.90;;;;;;4996393;28;20516;-66
2022/12/22 11:47:40;;;;;;;13.25;3.88;;;12.10;99.90;;;;;;4994793;28;20089;-66
2022/12/22 11:50:17;;;;;;;20.02;3.72;;;12.10;99.90;;;;;;5007801;28;20042;-66
2022/12/22 11:52:59;;;;;;;14.18;3.25;;;12.20;99.90;;;;;;5013973;28;20057;-67
2022/12/22 11:55:48;;;;;;;13.60;2.97;;;12.30;99.90;;;;;;5013475;28;20116;-68
2022/12/22 11:58:26;;;;;;;13.95;3.03;;;12.30;99.90;;;;;;5013831;28;20049;-66
2022/12/22 12:00:57;;;;;;;13.93;3.63;;;12.40;99.90;;;;;;5014056;28;20049;-75
2022/12/22 12:03:44;;;;;;;14.45;3.42;;;12.30;99.90;;;;;;5014869;28;20060;-66
2022/12/22 12:06:39;;;;;;;21.90;5.07;;;12.40;99.90;;;;;;5013452;28;20034;-66
2022/12/22 12:09:14;;;;;;;20.48;8.02;;;12.50;99.90;;;;;;5013351;28;20045;-67
2022/12/22 12:12:09;;;;;;;14.00;3.58;;;12.50;99.90;;;;;;5013685;28;20065;-67
2022/12/22 12:15:06;;;;;;;14.48;4.03;;;12.60;99.90;;;;;;5015393;28;20574;-70
2022/12/22 12:17:49;;;;;;;20.15;6.30;;;12.60;99.90;;;;;;5015465;28;20035;-70
2022/12/22 12:20:33;;;;;;;20.58;7.38;;;12.70;99.90;;;;;;4993558;28;20091;-67
2022/12/22 12:23:18;;;;;;;29.17;10.25;;;12.70;99.90;;;;;;5013867;28;20393;-67
2022/12/22 12:26:09;;;;;;;20.17;5.30;;;12.70;99.90;;;;;;5013953;28;20038;-67
2022/12/22 12:29:04;;;;;;;15.15;4.68;;;12.80;99.90;;;;;;4996626;28;20038;-68
2022/12/22 12:31:44;;;;;;;19.20;8.73;;;12.80;99.90;;;;;;5012950;28;20448;-68
2022/12/22 12:34:14;;;;;;;30.77;12.05;;;12.80;99.90;;;;;;5013114;28;20505;-67
2022/12/22 12:37:01;;;;;;;18.45;5.93;;;12.80;99.90;;;;;;5015115;28;20048;-67
2022/12/22 12:39:32;;;;;;;19.33;6.82;;;12.90;99.90;;;;;;5014505;28;20092;-75
2022/12/22 12:42:16;;;;;;;32.97;10.70;;;13.00;99.90;;;;;;5013280;28;20042;-69
2022/12/22 12:44:43;;;;;;;23.80;10.23;;;13.00;99.90;;;;;;5013208;28;20041;-75
2022/12/22 12:47:30;;;;;;;17.52;3.05;;;13.00;99.90;;;;;;5012973;28;20040;-67
2022/12/22 12:49:57;;;;;;;22.48;7.13;;;13.00;99.90;;;;;;4992911;28;20125;-68
2022/12/22 12:52:38;;;;;;;22.80;9.82;;;13.00;99.90;;;;;;5006544;28;20523;-67
2022/12/22 12:55:23;;;;;;;15.82;4.95;;;13.00;99.90;;;;;;4983698;28;20046;-67
2022/12/22 12:57:50;;;;;;;9.77;2.40;;;13.00;99.90;;;;;;5010435;28;20033;-67
2022/12/22 13:00:31;;;;;;;9.77;2.92;;;13.00;99.90;;;;;;5011427;28;20049;-68
2022/12/22 13:03:04;;;;;;;20.55;4.55;;;13.00;99.90;;;;;;5010370;28;20053;-66
2022/12/22 13:05:50;;;;;;;22.73;7.75;;;13.00;99.90;;;;;;5008267;28;20042;-67
2022/12/22 13:08:24;;;;;;;18.02;2.63;;;13.00;99.90;;;;;;5007066;28;20534;-67
2022/12/22 13:10:53;;;;;;;14.60;3.92;;;13.00;99.90;;;;;;5009356;28;20041;-66
2022/12/22 13:13:22;;;;;;;16.38;6.45;;;13.00;99.90;;;;;;5010438;28;20053;-66
2022/12/22 13:16:08;;;;;;;14.73;2.50;;;12.90;99.90;;;;;;5010843;28;20037;-74
2022/12/22 13:18:33;;;;;;;19.13;4.47;;;13.00;99.90;;;;;;4999002;28;20037;-67
2022/12/22 13:21:06;;;;;;;15.27;2.45;;;13.00;99.90;;;;;;5010487;28;20041;-67
2022/12/22 13:23:40;;;;;;;15.93;4.43;;;13.00;99.90;;;;;;5012317;28;20042;-66
2022/12/22 13:26:16;;;;;;;16.23;4.68;;;12.90;99.90;;;;;;5011893;28;20042;-67
2022/12/22 13:28:47;;;;;;;32.38;13.65;;;12.90;99.90;;;;;;5011568;28;20037;-66
2022/12/22 13:31:17;;;;;;;32.33;16.20;;;12.90;99.90;;;;;;5011897;28;20069;-66
2022/12/22 13:33:45;;;;;;;23.60;9.90;;;12.90;99.90;;;;;;5011230;28;20053;-66
2022/12/22 13:36:24;;;;;;;14.45;4.38;;;12.90;99.90;;;;;;5011312;28;20177;-67
2022/12/22 13:39:10;;;;;;;12.07;3.00;;;12.90;99.90;;;;;;5011928;28;20120;-67
2022/12/22 13:41:39;;;;;;;11.10;3.35;;;12.80;99.90;;;;;;5011942;28;20034;-66
2022/12/22 13:44:09;;;;;;;10.70;3.10;;;12.80;99.90;;;;;;5012032;28;20048;-72
2022/12/22 13:46:37;;;;;;;19.30;2.90;;;12.80;99.90;;;;;;5012172;28;20088;-67
2022/12/22 13:49:08;;;;;;;10.57;3.25;;;12.90;99.90;;;;;;5010988;28;20045;-66
2022/12/22 13:51:37;;;;;;;14.63;2.47;;;12.80;99.90;;;;;;5011589;28;20083;-66
2022/12/22 13:54:25;;;;;;;9.20;1.95;;;12.80;99.90;;;;;;5011939;28;20107;-67
2022/12/22 13:56:55;;;;;;;13.15;2.30;;;12.70;99.90;;;;;;5011857;28;20045;-66
2022/12/22 13:59:45;;;;;;;16.17;2.97;;;12.80;99.90;;;;;;5007106;28;20042;-66
2022/12/22 14:02:11;;;;;;;13.60;3.00;;;12.80;99.90;;;;;;5011778;28;20087;-66
2022/12/22 14:04:39;;;;;;;11.52;2.97;;;12.70;99.90;;;;;;5011067;28;20053;-68
2022/12/22 14:07:15;;;;;;;14.20;2.72;;;12.70;99.90;;;;;;5011665;28;20069;-67
2022/12/22 14:09:46;;;;;;;7.93;2.85;;;12.70;99.90;;;;;;5011400;28;20160;-67
2022/12/22 14:12:14;;;;;;;;;;;12.70;99.90;;;;;;5011674;28;20104;-67
2022/12/22 14:14:43;;;;;;;14.13;2.55;;;12.70;99.90;;;;;;4993717;28;19916;-67
2022/12/22 14:17:31;;;;;;;10.93;2.78;;;12.70;99.90;;;;;;4994930;28;20397;-67
2022/12/22 14:20:02;;;;;;;8.43;2.53;;;12.60;99.90;;;;;;4992734;28;20065;-66
2022/12/22 14:22:33;;;;;;;13.60;2.72;;;12.60;99.90;;;;;;4993213;28;20038;-67
2022/12/22 14:25:17;;;;;;;15.93;3.72;;;12.60;99.90;;;;;;4974179;28;20490;-68
2022/12/22 14:27:48;;;;;;;14.35;3.38;;;12.60;99.90;;;;;;4993623;28;20133;-67
2022/12/22 14:30:19;;;;;;;15.55;2.13;;;12.50;99.90;;;;;;5013680;28;20125;-67
2022/12/22 14:32:47;;;;;;;11.10;2.10;;;12.50;99.90;;;;;;5012050;28;20054;-67
2022/12/22 14:35:24;;;;;;;12.55;2.38;;;12.40;99.90;;;;;;5011307;28;20045;-66
2022/12/22 14:38:06;;;;;;;16.88;3.55;;;12.30;99.90;;;;;;5014975;28;20052;-67
2022/12/22 14:40:39;;;;;;;11.85;2.40;;;12.30;99.90;;;;;;5024561;28;20156;-67
2022/12/22 14:43:19;;;;;;;11.95;2.47;;;12.30;99.90;;;;;;5029502;28;20041;-66
2022/12/22 14:45:47;;;;;;;13.20;2.90;;;12.20;99.90;;;;;;5014246;28;20037;-74
2022/12/22 14:48:30;;;;;;;14.52;2.63;;;12.20;99.90;;;;;;4993977;28;20132;-66
2022/12/22 14:50:56;;;;;;;10.10;2.35;;;12.10;99.90;;;;;;5009769;28;20042;-70
2022/12/22 14:53:27;;;;;;;18.45;2.30;;;12.00;99.90;;;;;;5013278;28;20527;-66
2022/12/22 14:55:53;;;;;;;14.82;2.95;;;11.90;99.90;;;;;;4993002;28;20044;-70
2022/12/22 14:58:31;;;;;;;11.77;2.30;;;11.90;99.90;;;;;;5011511;28;20516;-67
2022/12/22 15:01:27;;;;;;;16.42;2.60;;;12.00;99.90;;;;;;5010775;28;20030;-70
2022/12/22 15:04:07;;;;;;;10.68;2.75;;;12.00;99.90;;;;;;5014404;28;20050;-75
2022/12/22 15:06:42;;;;;;;9.88;2.63;;;11.90;99.90;;;;;;5015676;28;20483;-66
2022/12/22 15:09:24;;;;;;;12.27;3.25;;;11.90;99.90;;;;;;5015169;28;20523;-68
2022/12/22 15:12:00;;;;;;;12.18;3.17;;;11.70;99.90;;;;;;5013686;28;20050;-75
2022/12/22 15:14:31;;;;;;;16.75;3.92;;;11.60;99.90;;;;;;5025076;28;20599;-69
2022/12/22 15:17:00;;;;;;;10.57;3.17;;;11.50;99.90;;;;;;5026429;28;20488;-67
2022/12/22 15:19:35;;;;;;;12.00;2.67;;;11.40;99.90;;;;;;5013020;28;20046;-66
2022/12/22 15:22:01;;;;;;;15.13;2.42;;;11.30;99.90;;;;;;5013887;28;20053;-74
2022/12/22 15:24:28;;;;;;;14.73;2.72;;;11.20;99.90;;;;;;4997759;28;20030;-72
2022/12/22 15:26:54;;;;;;;12.23;2.97;;;11.40;99.90;;;;;;5015081;28;20408;-66
2022/12/22 15:29:20;;;;;;;17.55;3.25;;;11.40;99.90;;;;;;5014645;28;20378;-66
2022/12/22 15:31:45;;;;;;;11.43;3.13;;;11.40;99.90;;;;;;5013757;28;20044;-74
2022/12/22 15:34:31;;;;;;;12.63;2.67;;;11.30;99.90;;;;;;4997079;28;20045;-67
2022/12/22 15:36:57;;;;;;;11.82;2.95;;;11.30;99.90;;;;;;5013922;28;20038;-67
2022/12/22 15:39:23;;;;;;;13.40;2.45;;;11.30;99.90;;;;;;5013769;28;20064;-66
2022/12/22 15:41:49;;;;;;;12.80;2.30;;;11.20;99.90;;;;;;5014155;28;20045;-68
2022/12/22 15:44:15;;;;;;;13.05;2.95;;;11.30;99.90;;;;;;4996320;28;20459;-66
2022/12/22 15:46:43;;;;;;;14.30;2.35;;;11.40;99.90;;;;;;5014049;28;20040;-67
2022/12/22 15:49:17;;;;;;;13.68;2.50;;;11.40;99.90;;;;;;5014681;28;20073;-78
2022/12/22 15:51:46;;;;;;;13.65;2.75;;;11.30;99.90;;;;;;5015039;28;20060;-67
2022/12/22 15:54:14;;;;;;;12.52;3.10;;;11.30;99.90;;;;;;5013659;28;20041;-67
2022/12/22 15:56:41;;;;;;;14.07;2.55;;;11.30;99.90;;;;;;4996956;28;20026;-68
2022/12/22 15:59:21;;;;;;;13.48;2.92;;;11.30;99.90;;;;;;4993629;28;20496;-77
2022/12/22 16:01:47;;;;;;;13.50;2.92;;;11.30;99.90;;;;;;5012288;28;20107;-65
2022/12/22 16:04:12;;;;;;;12.70;2.50;;;11.30;99.90;;;;;;5011290;28;20053;-67
2022/12/22 16:06:39;;;;;;;12.88;2.55;;;11.20;99.90;;;;;;5012472;28;20072;-65
2022/12/22 16:09:11;;;;;;;10.48;3.45;;;11.20;99.90;;;;;;5013666;28;20215;-65
2022/12/22 16:11:38;;;;;;;12.80;3.47;;;11.00;99.90;;;;;;5013908;28;20029;-66
2022/12/22 16:14:04;;;;;;;13.02;3.25;;;10.90;99.90;;;;;;5013253;28;20056;-66
2022/12/22 16:16:29;;;;;;;11.18;3.03;;;10.90;99.90;;;;;;5012759;28;20030;-66
2022/12/22 16:18:55;;;;;;;14.15;3.80;;;10.90;99.90;;;;;;5012699;28;20053;-65
2022/12/22 16:21:29;;;;;;;8.73;3.00;;;10.80;99.90;;;;;;5013393;28;20033;-65
2022/12/22 16:23:55;;;;;;;11.63;3.03;;;10.70;99.90;;;;;;5013367;28;20063;-66
2022/12/22 16:26:22;;;;;;;12.48;3.05;;;10.70;99.90;;;;;;4995763;28;20033;-75
2022/12/22 16:28:48;;;;;;;14.32;3.70;;;10.80;99.90;;;;;;5013246;28;20077;-66
2022/12/22 16:31:23;;;;;;;9.60;3.40;;;10.70;99.90;;;;;;5010995;28;20037;-69
2022/12/22 16:33:49;;;;;;;11.60;4.63;;;10.70;99.90;;;;;;4995362;28;20049;-67
2022/12/22 16:36:15;;;;;;;10.45;3.55;;;10.70;99.90;;;;;;5012642;28;20042;-67
2022/12/22 16:38:41;;;;;;;9.45;3.35;;;10.70;99.90;;;;;;4991460;28;20069;-66
2022/12/22 16:41:22;;;;;;;18.45;5.07;;;10.70;99.90;;;;;;5000351;28;20441;-66